Time;durP1;ratioP1;P1;durP2;ratioP2;P2;SDS_P1;SDS_P2;PMS_P1;PMS_P2;Temp;Humidity;BMP_temperature;BMP_pressure;BME280_temperature;BME280_humidity;BME280_pressure;Samples;Min_cycle;Max_cycle;Signal;HPM_P1;HPM_P2
2022/07/07 00:01:40;;;;;;;17.60;9.50;;;;;;;;;;5019131;28;20041;-73
2022/07/07 00:04:05;;;;;;;15.80;8.82;;;;;;;;;;5023629;28;20383;-71
2022/07/07 00:06:31;;;;;;;17.35;9.52;;;;;;;;;;5022847;28;20096;-72
2022/07/07 00:08:56;;;;;;;12.73;8.40;;;;;;;;;;5024450;28;20025;-71
2022/07/07 00:11:22;;;;;;;18.67;8.52;;;;;;;;;;5029340;28;20017;-71
2022/07/07 00:13:47;;;;;;;15.00;8.15;;;;;;;;;;5024774;28;20017;-71
2022/07/07 00:16:12;;;;;;;15.63;8.27;;;;;;;;;;5021644;28;20044;-71
2022/07/07 00:18:38;;;;;;;14.65;9.93;;;;;;;;;;5033036;28;20087;-71
2022/07/07 00:21:04;;;;;;;18.50;9.48;;;;;;;;;;5029350;28;20028;-68
2022/07/07 00:23:29;;;;;;;20.00;9.85;;;;;;;;;;5025513;28;20025;-70
2022/07/07 00:25:54;;;;;;;21.17;10.40;;;;;;;;;;5019687;28;20032;-69
2022/07/07 00:28:20;;;;;;;20.50;9.73;;;;;;;;;;5022717;28;20116;-71
2022/07/07 00:30:45;;;;;;;19.40;9.30;;;;;;;;;;5027667;28;20609;-71
2022/07/07 00:33:10;;;;;;;15.82;8.80;;;;;;;;;;5024745;28;20074;-71
2022/07/07 00:35:35;;;;;;;17.20;10.07;;;;;;;;;;5019854;28;20025;-69
2022/07/07 00:38:00;;;;;;;15.77;8.35;;;;;;;;;;5018435;28;20030;-72
2022/07/07 00:40:26;;;;;;;16.40;8.93;;;;;;;;;;5017853;28;20108;-71
2022/07/07 00:42:51;;;;;;;16.60;9.00;;;;;;;;;;5015803;28;20336;-72
2022/07/07 00:45:16;;;;;;;19.05;9.30;;;;;;;;;;5021524;28;20263;-72
2022/07/07 00:47:41;;;;;;;17.50;9.03;;;;;;;;;;5021286;28;20049;-71
2022/07/07 00:50:07;;;;;;;17.38;8.90;;;;;;;;;;5021915;28;20040;-71
2022/07/07 00:52:32;;;;;;;17.23;9.35;;;;;;;;;;5023141;28;20033;-71
2022/07/07 00:54:59;;;;;;;18.08;9.30;;;;;;;;;;5022870;28;20398;-72
2022/07/07 00:57:25;;;;;;;12.82;8.88;;;;;;;;;;5024368;28;20112;-72
2022/07/07 00:59:51;;;;;;;13.75;9.10;;;;;;;;;;5020619;28;20124;-69
2022/07/07 01:02:16;;;;;;;15.95;8.93;;;;;;;;;;5022386;28;20056;-71
2022/07/07 01:04:41;;;;;;;14.17;9.70;;;;;;;;;;5027796;28;20552;-70
2022/07/07 01:07:07;;;;;;;21.35;10.10;;;;;;;;;;5029035;28;20351;-71
2022/07/07 01:09:32;;;;;;;18.63;9.80;;;;;;;;;;5023768;28;20479;-69
2022/07/07 01:11:57;;;;;;;20.08;10.18;;;;;;;;;;5025228;28;20108;-70
2022/07/07 01:14:23;;;;;;;16.55;9.30;;;;;;;;;;5024126;28;20022;-71
2022/07/07 01:16:49;;;;;;;21.02;10.10;;;;;;;;;;5024066;28;20025;-70
2022/07/07 01:19:14;;;;;;;14.73;9.63;;;;;;;;;;5021274;28;20036;-68
2022/07/07 01:21:54;;;;;;;18.38;9.55;;;;;;;;;;5024462;28;20108;-72
2022/07/07 01:24:23;;;;;;;19.50;9.73;;;;;;;;;;5020580;28;20030;-70
2022/07/07 01:26:48;;;;;;;17.70;8.68;;;;;;;;;;5018799;28;20496;-71
2022/07/07 01:29:13;;;;;;;17.80;10.00;;;;;;;;;;5021073;28;20113;-70
2022/07/07 01:31:39;;;;;;;17.98;8.73;;;;;;;;;;5020988;28;20044;-70
2022/07/07 01:34:04;;;;;;;15.95;8.82;;;;;;;;;;5022885;28;20025;-70
2022/07/07 01:36:29;;;;;;;16.80;8.50;;;;;;;;;;5027169;28;20021;-69
2022/07/07 01:38:54;;;;;;;14.83;8.10;;;;;;;;;;5020705;28;20271;-69
2022/07/07 01:41:19;;;;;;;15.93;8.53;;;;;;;;;;5020712;28;20404;-70
2022/07/07 01:43:45;;;;;;;15.95;7.95;;;;;;;;;;5019986;28;20112;-70
2022/07/07 01:46:10;;;;;;;15.63;8.93;;;;;;;;;;5019392;28;20017;-68
2022/07/07 01:48:35;;;;;;;15.00;8.27;;;;;;;;;;5021895;28;20757;-70
2022/07/07 01:51:00;;;;;;;11.63;7.60;;;;;;;;;;5020976;28;20026;-68
2022/07/07 01:53:25;;;;;;;12.77;8.40;;;;;;;;;;5020122;28;20013;-69
2022/07/07 01:55:50;;;;;;;13.93;7.57;;;;;;;;;;5026901;28;20515;-70
2022/07/07 01:58:16;;;;;;;15.90;7.93;;;;;;;;;;5023537;28;20021;-70
2022/07/07 02:00:41;;;;;;;15.13;8.13;;;;;;;;;;5022477;28;20171;-68
2022/07/07 02:03:06;;;;;;;10.63;7.53;;;;;;;;;;5023549;28;20037;-70
2022/07/07 02:05:31;;;;;;;11.50;6.97;;;;;;;;;;5028948;28;20018;-70
2022/07/07 02:07:56;;;;;;;11.27;7.53;;;;;;;;;;5022367;28;20123;-69
2022/07/07 02:13:06;;;;;;;11.57;6.88;;;;;;;;;;5026670;28;20345;-70
2022/07/07 02:15:32;;;;;;;8.87;6.70;;;;;;;;;;5021760;28;20021;-69
2022/07/07 02:17:57;;;;;;;9.98;6.60;;;;;;;;;;5020507;28;20349;-69
2022/07/07 02:20:23;;;;;;;18.25;6.40;;;;;;;;;;5021428;28;20104;-69
2022/07/07 02:22:48;;;;;;;8.50;6.13;;;;;;;;;;5024153;28;20025;-70
2022/07/07 02:25:13;;;;;;;12.57;6.05;;;;;;;;;;5017997;28;20116;-69
2022/07/07 02:27:39;;;;;;;11.70;5.55;;;;;;;;;;5017282;28;20569;-69
2022/07/07 02:30:05;;;;;;;12.68;6.07;;;;;;;;;;5022880;28;20037;-69
2022/07/07 02:32:30;;;;;;;10.32;5.57;;;;;;;;;;5020180;28;20018;-69
2022/07/07 02:34:58;;;;;;;14.03;5.87;;;;;;;;;;5020894;28;20041;-69
2022/07/07 02:37:23;;;;;;;9.48;5.20;;;;;;;;;;5021301;28;20026;-70
2022/07/07 02:39:48;;;;;;;10.87;5.20;;;;;;;;;;5024373;28;20150;-69
2022/07/07 02:42:14;;;;;;;10.75;5.05;;;;;;;;;;5015455;28;20028;-69
2022/07/07 02:44:39;;;;;;;9.32;3.67;;;;;;;;;;5019402;28;20029;-68
2022/07/07 02:47:04;;;;;;;7.47;4.72;;;;;;;;;;5022050;28;20131;-70
2022/07/07 02:49:29;;;;;;;7.00;3.22;;;;;;;;;;5018154;28;20526;-69
2022/07/07 02:51:54;;;;;;;6.53;2.60;;;;;;;;;;5022320;28;20022;-69
2022/07/07 02:54:20;;;;;;;6.13;2.33;;;;;;;;;;5019785;28;20040;-70
2022/07/07 02:56:45;;;;;;;3.50;2.10;;;;;;;;;;5021325;28;20044;-70
2022/07/07 02:59:10;;;;;;;5.78;2.10;;;;;;;;;;5019242;28;20336;-69
2022/07/07 03:01:35;;;;;;;5.38;2.28;;;;;;;;;;5018605;28;20048;-72
2022/07/07 03:04:00;;;;;;;4.32;2.10;;;;;;;;;;5019308;28;20024;-68
2022/07/07 03:06:25;;;;;;;4.43;1.87;;;;;;;;;;5019477;28;20021;-70
2022/07/07 03:08:50;;;;;;;2.67;2.10;;;;;;;;;;5015238;28;20025;-69
2022/07/07 03:11:16;;;;;;;5.70;2.43;;;;;;;;;;5022747;28;20033;-68
2022/07/07 03:13:41;;;;;;;5.23;2.70;;;;;;;;;;5024494;28;20025;-69
2022/07/07 03:16:06;;;;;;;3.07;2.33;;;;;;;;;;5020370;28;20850;-69
2022/07/07 03:18:31;;;;;;;2.88;2.25;;;;;;;;;;5027674;28;20017;-69
2022/07/07 03:20:56;;;;;;;4.40;2.17;;;;;;;;;;5023888;28;20026;-69
2022/07/07 03:23:22;;;;;;;3.25;2.10;;;;;;;;;;5023091;28;20279;-69
2022/07/07 03:25:47;;;;;;;4.57;2.10;;;;;;;;;;5026908;28;20021;-70
2022/07/07 03:28:12;;;;;;;3.33;1.90;;;;;;;;;;5024508;28;20345;-70
2022/07/07 03:30:38;;;;;;;7.43;2.70;;;;;;;;;;5021353;28;20075;-70
2022/07/07 03:33:04;;;;;;;4.27;2.93;;;;;;;;;;5016664;28;20075;-70
2022/07/07 03:35:29;;;;;;;4.70;2.80;;;;;;;;;;5024234;28;20021;-70
2022/07/07 03:37:54;;;;;;;5.25;3.33;;;;;;;;;;5026652;28;20055;-69
2022/07/07 03:40:19;;;;;;;2.90;2.57;;;;;;;;;;5020814;28;20018;-70
2022/07/07 03:42:44;;;;;;;3.57;2.27;;;;;;;;;;5025204;28;20274;-68
2022/07/07 03:45:10;;;;;;;4.65;2.65;;;;;;;;;;5021726;28;20037;-69
2022/07/07 03:47:35;;;;;;;3.67;2.63;;;;;;;;;;5023490;28;20022;-68
2022/07/07 03:50:00;;;;;;;4.07;2.60;;;;;;;;;;5015919;28;20026;-69
2022/07/07 03:52:25;;;;;;;3.90;2.90;;;;;;;;;;5013319;28;20289;-69
2022/07/07 03:54:51;;;;;;;3.50;2.50;;;;;;;;;;5017846;28;20032;-68
2022/07/07 03:57:16;;;;;;;7.15;2.90;;;;;;;;;;5022081;28;20633;-68
2022/07/07 03:59:41;;;;;;;8.50;3.07;;;;;;;;;;5020443;28;20022;-70
2022/07/07 04:02:07;;;;;;;5.00;2.88;;;;;;;;;;5014670;28;20282;-70
2022/07/07 04:04:32;;;;;;;3.00;2.70;;;;;;;;;;5022234;28;20512;-69
2022/07/07 04:06:57;;;;;;;7.00;3.00;;;;;;;;;;5025699;28;20061;-70
2022/07/07 04:09:22;;;;;;;6.93;3.10;;;;;;;;;;5019349;28;20282;-70
2022/07/07 04:11:47;;;;;;;3.70;2.90;;;;;;;;;;5026982;28;20072;-69
2022/07/07 04:14:13;;;;;;;6.37;3.37;;;;;;;;;;5030547;28;20032;-68
2022/07/07 04:16:38;;;;;;;3.37;3.07;;;;;;;;;;5023926;28;20113;-70
2022/07/07 04:19:03;;;;;;;3.97;3.20;;;;;;;;;;5028954;28;20021;-69
2022/07/07 04:21:28;;;;;;;6.10;3.50;;;;;;;;;;5031025;28;20032;-69
2022/07/07 04:23:54;;;;;;;4.57;3.10;;;;;;;;;;5029299;28;20060;-69
2022/07/07 04:26:19;;;;;;;4.57;3.63;;;;;;;;;;5033860;28;20021;-70
2022/07/07 04:28:44;;;;;;;4.15;3.60;;;;;;;;;;5031738;28;20048;-70
2022/07/07 04:31:09;;;;;;;5.87;3.90;;;;;;;;;;5024353;28;20375;-71
2022/07/07 04:33:35;;;;;;;4.93;3.50;;;;;;;;;;5024833;28;20302;-70
2022/07/07 04:36:00;;;;;;;5.40;3.57;;;;;;;;;;5022972;28;20114;-68
2022/07/07 04:38:25;;;;;;;5.53;3.47;;;;;;;;;;5023608;28;20025;-69
2022/07/07 04:40:50;;;;;;;6.07;3.33;;;;;;;;;;5024061;28;20022;-69
2022/07/07 04:43:15;;;;;;;5.40;3.50;;;;;;;;;;5021402;28;20634;-69
2022/07/07 04:45:40;;;;;;;9.90;4.10;;;;;;;;;;5022612;28;20033;-68
2022/07/07 04:48:06;;;;;;;7.60;3.30;;;;;;;;;;5019252;28;20255;-69
2022/07/07 04:50:31;;;;;;;7.00;3.92;;;;;;;;;;5023099;28;20317;-70
2022/07/07 04:52:56;;;;;;;5.10;2.53;;;;;;;;;;5020553;28;20047;-69
2022/07/07 04:55:22;;;;;;;5.97;2.40;;;;;;;;;;5020720;28;20278;-68
2022/07/07 04:57:47;;;;;;;2.35;2.10;;;;;;;;;;5019270;28;20377;-69
2022/07/07 05:00:12;;;;;;;7.47;2.30;;;;;;;;;;5016850;28;20353;-70
2022/07/07 05:02:37;;;;;;;6.00;2.30;;;;;;;;;;5021792;28;20029;-69
2022/07/07 05:05:03;;;;;;;10.52;2.72;;;;;;;;;;5025011;28;20029;-70
2022/07/07 05:07:28;;;;;;;5.13;2.50;;;;;;;;;;5021208;28;20068;-68
2022/07/07 05:09:53;;;;;;;10.70;2.87;;;;;;;;;;5022688;28;20136;-69
2022/07/07 05:12:18;;;;;;;4.20;2.17;;;;;;;;;;5021604;28;20029;-69
2022/07/07 05:14:44;;;;;;;2.67;1.83;;;;;;;;;;5026698;28;20456;-70
2022/07/07 05:17:09;;;;;;;1.97;1.37;;;;;;;;;;5028272;28;20033;-70
2022/07/07 05:19:34;;;;;;;5.10;1.90;;;;;;;;;;5026140;28;20263;-68
2022/07/07 05:21:59;;;;;;;3.60;1.47;;;;;;;;;;5026723;28;20495;-70
2022/07/07 05:24:24;;;;;;;6.00;2.27;;;;;;;;;;5026932;28;20266;-70
2022/07/07 05:26:49;;;;;;;5.43;1.73;;;;;;;;;;5029644;28;20258;-70
2022/07/07 05:29:15;;;;;;;4.93;1.87;;;;;;;;;;5025840;28;20400;-68
2022/07/07 05:31:40;;;;;;;4.37;1.93;;;;;;;;;;5029467;28;20040;-70
2022/07/07 05:34:05;;;;;;;4.07;1.60;;;;;;;;;;5028408;28;20025;-69
2022/07/07 05:36:33;;;;;;;4.90;2.20;;;;;;;;;;5023075;28;20681;-69
2022/07/07 05:38:58;;;;;;;4.20;1.58;;;;;;;;;;5022603;28;20032;-75
2022/07/07 05:41:24;;;;;;;5.25;1.83;;;;;;;;;;5029128;28;20408;-72
2022/07/07 05:43:49;;;;;;;3.73;1.50;;;;;;;;;;5019411;28;20021;-68
2022/07/07 05:46:14;;;;;;;7.30;1.90;;;;;;;;;;5017431;28;20262;-71
2022/07/07 05:48:39;;;;;;;4.40;2.25;;;;;;;;;;5023036;28;20040;-70
2022/07/07 05:51:05;;;;;;;3.78;1.92;;;;;;;;;;5026000;28;20097;-69
2022/07/07 05:53:30;;;;;;;7.03;1.95;;;;;;;;;;5020541;28;20227;-69
2022/07/07 05:55:58;;;;;;;5.47;1.80;;;;;;;;;;5021347;28;20025;-71
2022/07/07 05:58:24;;;;;;;7.10;1.63;;;;;;;;;;5022664;28;20040;-69
2022/07/07 06:00:49;;;;;;;6.05;1.40;;;;;;;;;;5019886;28;20021;-69
2022/07/07 06:03:15;;;;;;;5.78;1.65;;;;;;;;;;5018049;28;20029;-71
2022/07/07 06:05:41;;;;;;;4.88;1.40;;;;;;;;;;5017968;28;20018;-70
2022/07/07 06:08:06;;;;;;;7.45;1.90;;;;;;;;;;5020929;28;20134;-70
2022/07/07 06:10:32;;;;;;;5.37;1.47;;;;;;;;;;5018456;28;20112;-71
2022/07/07 06:12:57;;;;;;;7.20;1.65;;;;;;;;;;5020287;28;20022;-70
2022/07/07 06:15:22;;;;;;;4.75;1.27;;;;;;;;;;5016072;28;20037;-69
2022/07/07 06:17:48;;;;;;;2.03;1.47;;;;;;;;;;5013060;28;20523;-71
2022/07/07 06:20:13;;;;;;;6.15;1.70;;;;;;;;;;5019319;28;20274;-71
2022/07/07 06:22:38;;;;;;;8.02;2.20;;;;;;;;;;5020467;28;20131;-70
2022/07/07 06:25:04;;;;;;;9.33;1.90;;;;;;;;;;5019492;28;20025;-69
2022/07/07 06:27:29;;;;;;;5.75;1.50;;;;;;;;;;5021145;28;20353;-70
2022/07/07 06:29:57;;;;;;;9.93;1.60;;;;;;;;;;5025325;28;20089;-69
2022/07/07 06:32:22;;;;;;;13.98;2.08;;;;;;;;;;5024249;28;20274;-69
2022/07/07 06:34:48;;;;;;;8.80;1.33;;;;;;;;;;5026033;28;20021;-69
2022/07/07 06:37:13;;;;;;;18.03;2.30;;;;;;;;;;5020132;28;20041;-70
2022/07/07 06:39:38;;;;;;;8.93;1.60;;;;;;;;;;5020987;28;20402;-71
2022/07/07 06:42:03;;;;;;;8.70;2.70;;;;;;;;;;5018172;28;20025;-70
2022/07/07 06:44:30;;;;;;;6.43;1.60;;;;;;;;;;5015297;28;20296;-71
2022/07/07 06:46:59;;;;;;;7.97;2.08;;;;;;;;;;5015770;28;20538;-70
2022/07/07 06:49:25;;;;;;;11.93;2.40;;;;;;;;;;5015266;28;20415;-70
2022/07/07 06:51:50;;;;;;;9.70;1.80;;;;;;;;;;5018056;28;20483;-68
2022/07/07 06:54:16;;;;;;;8.10;1.60;;;;;;;;;;5018332;28;20108;-68
2022/07/07 06:56:41;;;;;;;5.30;1.50;;;;;;;;;;5015709;28;20040;-71
2022/07/07 06:59:06;;;;;;;4.82;1.30;;;;;;;;;;5022839;28;20266;-68
2022/07/07 07:01:31;;;;;;;7.70;1.40;;;;;;;;;;5015988;28;20044;-70
2022/07/07 07:03:56;;;;;;;6.30;1.67;;;;;;;;;;5016702;28;20293;-75
2022/07/07 07:06:21;;;;;;;9.23;1.48;;;;;;;;;;5015779;28;20363;-70
2022/07/07 07:08:48;;;;;;;12.63;1.93;;;;;;;;;;5015104;28;20026;-73
2022/07/07 07:11:13;;;;;;;6.32;1.58;;;;;;;;;;5014612;28;20450;-71
2022/07/07 07:13:38;;;;;;;7.27;2.20;;;;;;;;;;5019667;28;20029;-73
2022/07/07 07:16:03;;;;;;;8.05;1.98;;;;;;;;;;5017311;28;20290;-71
2022/07/07 07:18:28;;;;;;;5.63;1.58;;;;;;;;;;5017615;28;20535;-73
2022/07/07 07:20:53;;;;;;;5.40;1.40;;;;;;;;;;5016882;28;20109;-74
2022/07/07 07:23:19;;;;;;;8.63;1.35;;;;;;;;;;5016000;28;20479;-71
2022/07/07 07:25:44;;;;;;;7.75;1.80;;;;;;;;;;5017431;28;20017;-69
2022/07/07 07:28:09;;;;;;;5.77;1.37;;;;;;;;;;5018945;28;20028;-72
2022/07/07 07:30:34;;;;;;;6.00;1.40;;;;;;;;;;5022343;28;20279;-72
2022/07/07 07:32:59;;;;;;;6.38;1.48;;;;;;;;;;5019610;28;20040;-72
2022/07/07 07:35:25;;;;;;;5.27;1.60;;;;;;;;;;5021185;28;20036;-73
2022/07/07 07:37:50;;;;;;;10.20;1.95;;;;;;;;;;5018456;28;20304;-69
2022/07/07 07:40:15;;;;;;;11.27;1.88;;;;;;;;;;5023759;28;20025;-71
2022/07/07 07:42:41;;;;;;;6.10;1.13;;;;;;;;;;5018226;28;20451;-72
2022/07/07 07:45:09;;;;;;;8.80;1.85;;;;;;;;;;5014619;28;20468;-73
2022/07/07 07:47:34;;;;;;;6.85;1.80;;;;;;;;;;5021707;28;20479;-73
2022/07/07 07:50:00;;;;;;;4.45;1.33;;;;;;;;;;5021357;28;20036;-71
2022/07/07 07:52:25;;;;;;;7.57;1.37;;;;;;;;;;5016528;28;20366;-76
2022/07/07 07:54:50;;;;;;;4.63;1.70;;;;;;;;;;5016978;28;20086;-72
2022/07/07 07:57:15;;;;;;;7.90;1.50;;;;;;;;;;5019039;28;20111;-72
2022/07/07 07:59:40;;;;;;;4.97;0.90;;;;;;;;;;5023090;28;20654;-69
2022/07/07 08:02:06;;;;;;;5.83;1.17;;;;;;;;;;5022052;28;20426;-71
2022/07/07 08:04:31;;;;;;;5.45;1.30;;;;;;;;;;5024713;28;20270;-69
2022/07/07 08:06:56;;;;;;;4.55;1.50;;;;;;;;;;5021331;28;20057;-69
2022/07/07 08:09:22;;;;;;;4.32;1.00;;;;;;;;;;5021406;28;20030;-69
2022/07/07 08:11:47;;;;;;;3.55;1.20;;;;;;;;;;5023987;28;20383;-71
2022/07/07 08:14:13;;;;;;;3.78;1.20;;;;;;;;;;5020207;28;20376;-72
2022/07/07 08:16:38;;;;;;;10.20;1.27;;;;;;;;;;5022273;28;20117;-70
2022/07/07 08:19:03;;;;;;;8.67;1.83;;;;;;;;;;5021853;28;20021;-70
2022/07/07 08:21:28;;;;;;;8.50;1.15;;;;;;;;;;5024008;28;20601;-72
2022/07/07 08:23:53;;;;;;;3.42;1.00;;;;;;;;;;5022937;28;20044;-71
2022/07/07 08:26:18;;;;;;;4.70;1.20;;;;;;;;;;5022254;28;20048;-68
2022/07/07 08:28:44;;;;;;;6.70;1.33;;;;;;;;;;5017231;28;20032;-69
2022/07/07 08:31:09;;;;;;;5.05;1.40;;;;;;;;;;5019122;28;20612;-69
2022/07/07 08:33:35;;;;;;;3.00;1.20;;;;;;;;;;5020604;28;20030;-70
2022/07/07 08:36:00;;;;;;;3.97;1.27;;;;;;;;;;5021636;28;20290;-70
2022/07/07 08:38:25;;;;;;;1.88;1.08;;;;;;;;;;5025566;28;20634;-69
2022/07/07 08:40:51;;;;;;;5.60;1.10;;;;;;;;;;5016780;28;20135;-71
2022/07/07 08:43:16;;;;;;;8.70;1.95;;;;;;;;;;5016925;28;20031;-70
2022/07/07 08:45:41;;;;;;;4.37;1.00;;;;;;;;;;5017712;28;20025;-71
2022/07/07 08:48:06;;;;;;;4.43;1.33;;;;;;;;;;5022475;28;20371;-71
2022/07/07 08:50:32;;;;;;;5.30;1.52;;;;;;;;;;5018167;28;20101;-70
2022/07/07 08:53:00;;;;;;;5.97;1.60;;;;;;;;;;5022524;28;20044;-72
2022/07/07 08:55:25;;;;;;;3.88;1.20;;;;;;;;;;5022147;28;20266;-71
2022/07/07 08:57:51;;;;;;;3.63;1.20;;;;;;;;;;5023334;28;20026;-72
2022/07/07 09:00:17;;;;;;;5.22;1.40;;;;;;;;;;5019327;28;20026;-71
2022/07/07 09:02:42;;;;;;;3.85;2.30;;;;;;;;;;5024238;28;20041;-70
2022/07/07 09:05:07;;;;;;;3.60;1.33;;;;;;;;;;5019867;28;20047;-72
2022/07/07 09:07:43;;;;;;;4.05;1.17;;;;;;;;;;5026831;28;20550;-72
2022/07/07 09:10:08;;;;;;;10.27;1.52;;;;;;;;;;5018944;28;20025;-72
2022/07/07 09:12:33;;;;;;;4.80;1.35;;;;;;;;;;5017581;28;20029;-70
2022/07/07 09:15:02;;;;;;;4.03;1.23;;;;;;;;;;5020710;28;20088;-70
2022/07/07 09:17:28;;;;;;;5.55;1.60;;;;;;;;;;5021458;28;20026;-71
2022/07/07 09:20:00;;;;;;;5.05;1.25;;;;;;;;;;5020943;28;20380;-71
2022/07/07 09:22:44;;;;;;;5.75;1.00;;;;;;;;;;5021309;28;20025;-71
2022/07/07 09:25:09;;;;;;;2.35;0.90;;;;;;;;;;5018804;28;20021;-70
2022/07/07 09:27:55;;;;;;;6.80;1.23;;;;;;;;;;5019756;28;20384;-68
2022/07/07 09:30:39;;;;;;;8.93;1.08;;;;;;;;;;5015147;28;20057;-68
2022/07/07 09:33:08;;;;;;;4.72;0.90;;;;;;;;;;5021871;28;20774;-68
2022/07/07 09:38:22;;;;;;;4.65;0.95;;;;;;;;;;5018282;28;20025;-69
2022/07/07 09:40:51;;;;;;;4.10;1.17;;;;;;;;;;5013381;28;20030;-68
2022/07/07 09:43:17;;;;;;;1.75;0.88;;;;;;;;;;5021547;28;20346;-69
2022/07/07 09:45:42;;;;;;;2.90;1.05;;;;;;;;;;5019997;28;20029;-68
2022/07/07 09:48:11;;;;;;;4.60;1.13;;;;;;;;;;5026456;28;20364;-70
2022/07/07 09:50:36;;;;;;;2.83;1.08;;;;;;;;;;5020214;28;20104;-69
2022/07/07 09:53:08;;;;;;;4.63;0.50;;;;;;;;;;5019364;28;20352;-68
2022/07/07 09:55:33;;;;;;;2.22;0.65;;;;;;;;;;5020733;28;20028;-71
2022/07/07 09:57:58;;;;;;;2.83;0.87;;;;;;;;;;5021594;28;20033;-68
2022/07/07 10:00:23;;;;;;;0.77;0.70;;;;;;;;;;5018574;28;20517;-70
2022/07/07 10:02:50;;;;;;;1.58;0.60;;;;;;;;;;5014501;28;20033;-69
2022/07/07 10:05:17;;;;;;;1.05;0.47;;;;;;;;;;5027242;28;20033;-69
2022/07/07 10:07:44;;;;;;;2.72;1.15;;;;;;;;;;5027912;28;20014;-68
2022/07/07 10:10:10;;;;;;;1.92;0.70;;;;;;;;;;5021114;28;20026;-68
2022/07/07 10:12:41;;;;;;;3.70;0.95;;;;;;;;;;5022591;28;20068;-68
2022/07/07 10:15:11;;;;;;;7.47;0.90;;;;;;;;;;5015769;28;20360;-68
2022/07/07 10:17:36;;;;;;;5.47;1.08;;;;;;;;;;5019666;28;20028;-69
2022/07/07 10:20:02;;;;;;;4.15;1.23;;;;;;;;;;5019001;28;20030;-69
2022/07/07 10:22:27;;;;;;;1.05;0.70;;;;;;;;;;5019068;28;20909;-69
2022/07/07 10:24:57;;;;;;;6.93;1.58;;;;;;;;;;5018642;28;20376;-69
2022/07/07 10:27:23;;;;;;;4.28;0.90;;;;;;;;;;5018901;28;20379;-70
2022/07/07 10:29:50;;;;;;;4.32;1.10;;;;;;;;;;5019340;28;20056;-71
2022/07/07 10:32:15;;;;;;;2.42;0.80;;;;;;;;;;5014451;28;20140;-70
2022/07/07 10:34:48;;;;;;;2.23;0.70;;;;;;;;;;5019528;28;20021;-71
2022/07/07 10:37:14;;;;;;;2.13;0.80;;;;;;;;;;5021361;28;20024;-70
2022/07/07 10:39:43;;;;;;;4.45;0.70;;;;;;;;;;5019029;28;20025;-69
2022/07/07 10:42:18;;;;;;;4.65;1.00;;;;;;;;;;5020809;28;20033;-71
2022/07/07 10:44:45;;;;;;;4.30;1.00;;;;;;;;;;5015741;28;20174;-69
2022/07/07 10:47:13;;;;;;;3.03;0.90;;;;;;;;;;5023810;28;20433;-72
2022/07/07 10:49:42;;;;;;;3.35;1.70;;;;;;;;;;5015533;28;20105;-70
2022/07/07 10:52:11;;;;;;;6.53;1.23;;;;;;;;;;5018311;28;20029;-71
2022/07/07 10:54:41;;;;;;;6.30;1.45;;;;;;;;;;5014624;28;20026;-71
2022/07/07 10:57:22;;;;;;;5.00;0.90;;;;;;;;;;5016585;28;20112;-71
2022/07/07 10:59:58;;;;;;;2.58;1.25;;;;;;;;;;5016325;28;20017;-71
2022/07/07 11:02:29;;;;;;;5.32;1.10;;;;;;;;;;5019881;28;20022;-70
2022/07/07 11:04:55;;;;;;;3.83;0.90;;;;;;;;;;5015476;28;20045;-71
2022/07/07 11:07:21;;;;;;;3.58;1.25;;;;;;;;;;5016438;28;20052;-71
2022/07/07 11:09:57;;;;;;;2.50;0.85;;;;;;;;;;5018421;28;20029;-70
2022/07/07 11:12:36;;;;;;;7.93;1.48;;;;;;;;;;5012764;28;20018;-71
2022/07/07 11:15:22;;;;;;;3.28;0.90;;;;;;;;;;5011219;28;20053;-72
2022/07/07 11:17:47;;;;;;;2.25;0.90;;;;;;;;;;5021076;28;20663;-69
2022/07/07 11:20:16;;;;;;;2.33;1.10;;;;;;;;;;5018748;28;20040;-70
2022/07/07 11:22:42;;;;;;;4.00;0.80;;;;;;;;;;5017940;28;20026;-71
2022/07/07 11:25:08;;;;;;;4.72;1.73;;;;;;;;;;5019232;28;20025;-70
2022/07/07 11:27:33;;;;;;;2.20;1.00;;;;;;;;;;5017660;28;20227;-71
2022/07/07 11:29:58;;;;;;;1.40;1.00;;;;;;;;;;5019229;28;20195;-71
2022/07/07 11:32:34;;;;;;;2.37;1.47;;;;;;;;;;5018201;28;20030;-70
2022/07/07 11:35:03;;;;;;;3.58;1.08;;;;;;;;;;5019018;28;20088;-69
2022/07/07 11:37:29;;;;;;;3.85;1.40;;;;;;;;;;5020404;28;20057;-70
2022/07/07 11:39:55;;;;;;;3.78;1.58;;;;;;;;;;5014107;28;20018;-70
2022/07/07 11:42:21;;;;;;;7.30;2.08;;;;;;;;;;5012553;28;20037;-72
2022/07/07 11:44:46;;;;;;;2.25;1.40;;;;;;;;;;5013009;28;20428;-72
2022/07/07 11:47:11;;;;;;;8.07;2.23;;;;;;;;;;5021930;28;20784;-71
2022/07/07 11:49:37;;;;;;;4.83;1.10;;;;;;;;;;5028000;28;20775;-70
2022/07/07 11:52:02;;;;;;;3.85;1.60;;;;;;;;;;5014942;28;20827;-72
2022/07/07 11:54:27;;;;;;;3.22;1.40;;;;;;;;;;5018286;28;20029;-72
2022/07/07 11:56:52;;;;;;;6.53;1.30;;;;;;;;;;5021585;28;20044;-72
2022/07/07 11:59:20;;;;;;;5.40;1.30;;;;;;;;;;5016723;28;20492;-72
2022/07/07 12:01:50;;;;;;;3.95;1.60;;;;;;;;;;5023335;28;20040;-70
2022/07/07 12:04:16;;;;;;;3.70;1.70;;;;;;;;;;5019161;28;20108;-75
2022/07/07 12:06:41;;;;;;;5.85;1.70;;;;;;;;;;5020864;28;20072;-74
2022/07/07 12:09:07;;;;;;;7.85;1.98;;;;;;;;;;5018667;28;20396;-72
2022/07/07 12:11:36;;;;;;;7.38;1.90;;;;;;;;;;5023851;28;20028;-73
2022/07/07 12:14:01;;;;;;;4.00;1.85;;;;;;;;;;5018162;28;20036;-72
2022/07/07 12:16:39;;;;;;;5.27;1.80;;;;;;;;;;5017244;28;20491;-71
2022/07/07 12:19:05;;;;;;;2.03;1.17;;;;;;;;;;5020166;28;20025;-71
2022/07/07 12:21:31;;;;;;;4.18;1.60;;;;;;;;;;5015303;28;20048;-71
2022/07/07 12:23:56;;;;;;;2.63;1.10;;;;;;;;;;5017406;28;20013;-71
2022/07/07 12:26:25;;;;;;;5.23;1.70;;;;;;;;;;5019168;28;20557;-72
2022/07/07 12:28:50;;;;;;;2.10;0.95;;;;;;;;;;5020637;28;20365;-73
2022/07/07 12:31:16;;;;;;;3.35;1.30;;;;;;;;;;5014790;28;20021;-72
2022/07/07 12:33:41;;;;;;;7.07;1.23;;;;;;;;;;5013682;28;20060;-72
2022/07/07 12:36:10;;;;;;;5.17;1.13;;;;;;;;;;5017228;28;20105;-72
2022/07/07 12:38:36;;;;;;;4.60;1.60;;;;;;;;;;5017179;28;20262;-73
2022/07/07 12:41:02;;;;;;;2.38;1.10;;;;;;;;;;5013186;28;20033;-73
2022/07/07 12:43:31;;;;;;;4.82;1.25;;;;;;;;;;5015413;28;20032;-72
2022/07/07 12:46:03;;;;;;;4.05;1.33;;;;;;;;;;5018428;28;20021;-72
2022/07/07 12:48:28;;;;;;;3.55;1.30;;;;;;;;;;5021289;28;20059;-72
2022/07/07 12:51:02;;;;;;;5.25;1.40;;;;;;;;;;5020815;28;20490;-73
2022/07/07 12:53:27;;;;;;;1.85;1.08;;;;;;;;;;5021165;28;20021;-71
2022/07/07 12:55:52;;;;;;;5.13;1.20;;;;;;;;;;5020559;28;20032;-72
2022/07/07 12:58:17;;;;;;;7.18;1.30;;;;;;;;;;5020309;28;20279;-75
2022/07/07 13:00:54;;;;;;;5.22;2.10;;;;;;;;;;5021003;28;20049;-70
2022/07/07 13:03:19;;;;;;;4.90;1.65;;;;;;;;;;5017065;28;20025;-72
2022/07/07 13:05:45;;;;;;;8.87;2.00;;;;;;;;;;5020265;28;20024;-72
2022/07/07 13:08:10;;;;;;;7.18;1.70;;;;;;;;;;5017915;28;20021;-73
2022/07/07 13:10:35;;;;;;;7.43;2.00;;;;;;;;;;5018773;28;20021;-74
2022/07/07 13:13:00;;;;;;;9.20;1.80;;;;;;;;;;5022401;28;20057;-73
2022/07/07 13:15:26;;;;;;;3.87;1.87;;;;;;;;;;5025057;28;20451;-75
2022/07/07 13:17:51;;;;;;;6.60;1.92;;;;;;;;;;5022573;28;20017;-72
2022/07/07 13:20:16;;;;;;;15.10;2.37;;;;;;;;;;5019326;28;20025;-73
2022/07/07 13:22:41;;;;;;;6.85;1.48;;;;;;;;;;5021374;28;20019;-72
2022/07/07 13:25:07;;;;;;;8.30;1.90;;;;;;;;;;5024806;28;20036;-76
2022/07/07 13:27:32;;;;;;;4.65;1.38;;;;;;;;;;5023807;28;20582;-74
2022/07/07 13:29:57;;;;;;;9.48;1.88;;;;;;;;;;5024814;28;20025;-69
2022/07/07 13:32:23;;;;;;;6.53;1.57;;;;;;;;;;5027111;28;20097;-74
2022/07/07 13:34:48;;;;;;;4.90;1.60;;;;;;;;;;5022346;28;20041;-72
2022/07/07 13:37:13;;;;;;;4.80;1.40;;;;;;;;;;5024411;28;20067;-71
2022/07/07 13:39:39;;;;;;;5.40;1.70;;;;;;;;;;5022403;28;20576;-70
2022/07/07 13:42:04;;;;;;;4.30;0.97;;;;;;;;;;5018699;28;20025;-73
2022/07/07 13:44:29;;;;;;;4.28;1.88;;;;;;;;;;5025243;28;20439;-70
2022/07/07 13:46:54;;;;;;;11.00;2.00;;;;;;;;;;5018778;28;20471;-70
2022/07/07 13:49:20;;;;;;;8.17;1.63;;;;;;;;;;5017708;28;20052;-72
2022/07/07 13:51:45;;;;;;;15.17;2.67;;;;;;;;;;5024681;28;20270;-73
2022/07/07 13:54:10;;;;;;;12.13;2.50;;;;;;;;;;5017961;28;20096;-74
2022/07/07 13:56:35;;;;;;;13.05;2.45;;;;;;;;;;5013295;28;20072;-72
2022/07/07 13:59:00;;;;;;;16.07;3.43;;;;;;;;;;5016784;28;20034;-74
2022/07/07 14:01:26;;;;;;;12.43;2.30;;;;;;;;;;5020770;28;20105;-73
2022/07/07 14:03:51;;;;;;;17.40;2.67;;;;;;;;;;5032611;28;20037;-72
2022/07/07 14:06:16;;;;;;;15.60;2.50;;;;;;;;;;5016592;28;20025;-76
2022/07/07 14:08:41;;;;;;;14.67;2.60;;;;;;;;;;5020638;28;20077;-70
2022/07/07 14:11:07;;;;;;;12.32;2.20;;;;;;;;;;5019204;28;20417;-74
2022/07/07 14:13:33;;;;;;;10.05;2.33;;;;;;;;;;5019401;28;20061;-76
2022/07/07 14:15:58;;;;;;;16.58;2.30;;;;;;;;;;5016655;28;20155;-73
2022/07/07 14:18:23;;;;;;;21.13;2.85;;;;;;;;;;5013116;28;20328;-72
2022/07/07 14:20:49;;;;;;;13.87;2.40;;;;;;;;;;5022556;28;20026;-72
2022/07/07 14:23:14;;;;;;;16.45;2.50;;;;;;;;;;5020054;28;20434;-72
2022/07/07 14:25:39;;;;;;;13.30;2.00;;;;;;;;;;5018449;28;20057;-71
2022/07/07 14:28:04;;;;;;;12.97;2.30;;;;;;;;;;5015837;28;20507;-72
2022/07/07 14:30:30;;;;;;;14.47;2.47;;;;;;;;;;5016807;28;20053;-72
2022/07/07 14:32:55;;;;;;;18.42;2.83;;;;;;;;;;5019110;28;20017;-74
2022/07/07 14:35:20;;;;;;;9.37;2.47;;;;;;;;;;5020474;28;20035;-73
2022/07/07 14:37:45;;;;;;;15.45;2.53;;;;;;;;;;5018781;28;20033;-73